Time;durP1;ratioP1;P1;durP2;ratioP2;P2;SDS_P1;SDS_P2;PMS_P1;PMS_P2;Temp;Humidity;BMP_temperature;BMP_pressure;BME280_temperature;BME280_humidity;BME280_pressure;Samples;Min_cycle;Max_cycle;Signal;HPM_P1;HPM_P2
2023/03/03 00:01:25;;;;;;;6.68;2.80;;;;;;;;;;6300387;22;20360;-61
2023/03/03 00:03:59;;;;;;;9.27;2.42;;;;;;;;;;6300995;22;20020;-61
2023/03/03 00:06:26;;;;;;;;;;;;;;;;;;6299842;22;20058;-61
2023/03/03 00:09:00;;;;;;;7.15;2.17;;;;;;;;;;6300914;22;19993;-61
2023/03/03 00:11:39;;;;;;;3.05;1.75;;;;;;;;;;6300785;22;20094;-61
2023/03/03 00:14:31;;;;;;;7.45;2.30;;;;;;;;;;6300400;22;20118;-60
2023/03/03 00:17:00;;;;;;;3.22;1.77;;;;;;;;;;6299598;22;20019;-61
2023/03/03 00:19:37;;;;;;;11.20;2.67;;;;;;;;;;6300166;22;20186;-61
2023/03/03 00:22:14;;;;;;;8.85;2.55;;;;;;;;;;6301021;22;20068;-61
2023/03/03 00:24:48;;;;;;;4.70;2.05;;;;;;;;;;6299059;22;20019;-60
2023/03/03 00:27:30;;;;;;;4.60;1.73;;;;;;;;;;6299847;22;20093;-61
2023/03/03 00:29:59;;;;;;;6.07;2.30;;;;;;;;;;6300890;22;20019;-61
2023/03/03 00:32:45;;;;;;;3.88;2.15;;;;;;;;;;6301337;22;20062;-61
2023/03/03 00:35:24;;;;;;;4.80;2.15;;;;;;;;;;6299752;22;20322;-61
2023/03/03 00:38:09;;;;;;;7.18;2.40;;;;;;;;;;6299041;22;20110;-61
2023/03/03 00:40:38;;;;;;;3.40;1.98;;;;;;;;;;6300185;22;20098;-61
2023/03/03 00:43:15;;;;;;;8.50;2.33;;;;;;;;;;6299336;22;20102;-61
2023/03/03 00:45:52;;;;;;;9.05;2.20;;;;;;;;;;6298135;22;20031;-61
2023/03/03 00:48:26;;;;;;;7.60;2.35;;;;;;;;;;6298788;22;20019;-60
2023/03/03 00:50:55;;;;;;;11.18;3.10;;;;;;;;;;6299687;22;20023;-60
2023/03/03 00:53:23;;;;;;;9.43;2.78;;;;;;;;;;6299631;22;20106;-61
2023/03/03 00:55:57;;;;;;;3.80;1.80;;;;;;;;;;6299415;22;20023;-60
2023/03/03 00:58:24;;;;;;;;;;;;;;;;;;6298186;22;20073;-61
2023/03/03 01:00:58;;;;;;;4.38;2.05;;;;;;;;;;6299694;22;19921;-60
2023/03/03 01:03:25;;;;;;;9.75;2.55;;;;;;;;;;6300057;22;20073;-61
2023/03/03 01:05:53;;;;;;;6.82;2.17;;;;;;;;;;6298884;22;20413;-61
2023/03/03 01:08:26;;;;;;;5.25;1.80;;;;;;;;;;6300285;22;20065;-61
2023/03/03 01:11:03;;;;;;;5.60;2.28;;;;;;;;;;6298042;22;20102;-60
2023/03/03 01:13:39;;;;;;;3.53;1.85;;;;;;;;;;6298813;22;20122;-60
2023/03/03 01:16:06;;;;;;;7.40;2.03;;;;;;;;;;6299912;22;20395;-61
2023/03/03 01:18:34;;;;;;;6.47;1.90;;;;;;;;;;6298963;22;20026;-61
2023/03/03 01:21:09;;;;;;;5.70;2.03;;;;;;;;;;6299837;22;20055;-61
2023/03/03 01:23:37;;;;;;;3.17;2.00;;;;;;;;;;6299741;22;20019;-62
2023/03/03 01:26:04;;;;;;;2.92;1.90;;;;;;;;;;6299565;22;20076;-61
2023/03/03 01:28:38;;;;;;;12.40;2.40;;;;;;;;;;6299832;22;20054;-60
2023/03/03 01:31:06;;;;;;;7.35;2.30;;;;;;;;;;6300796;22;20514;-61
2023/03/03 01:33:33;;;;;;;;;;;;;;;;;;6299779;22;20023;-60
2023/03/03 01:36:06;;;;;;;5.20;1.90;;;;;;;;;;6300006;22;19921;-61
2023/03/03 01:38:34;;;;;;;;;;;;;;;;;;6300186;22;20023;-60
2023/03/03 01:41:08;;;;;;;2.85;1.70;;;;;;;;;;6300080;22;19921;-61
2023/03/03 01:43:43;;;;;;;3.88;2.15;;;;;;;;;;6299112;22;20476;-61
2023/03/03 01:46:26;;;;;;;3.63;1.90;;;;;;;;;;6300192;22;20098;-60
2023/03/03 01:48:55;;;;;;;4.15;2.20;;;;;;;;;;6298999;22;20445;-60
2023/03/03 01:51:35;;;;;;;6.82;2.78;;;;;;;;;;6300143;22;20765;-60
2023/03/03 01:54:03;;;;;;;4.75;2.22;;;;;;;;;;6299130;22;20058;-61
2023/03/03 01:56:37;;;;;;;4.43;2.40;;;;;;;;;;6298901;22;20019;-61
2023/03/03 01:59:11;;;;;;;5.68;2.05;;;;;;;;;;6296541;22;20356;-60
2023/03/03 02:01:45;;;;;;;11.18;2.80;;;;;;;;;;6271883;22;20839;-61
2023/03/03 02:04:13;;;;;;;12.35;2.40;;;;;;;;;;6300130;22;20084;-61
2023/03/03 02:06:40;;;;;;;;;;;;;;;;;;6298874;22;20055;-61
2023/03/03 02:09:21;;;;;;;9.73;3.25;;;;;;;;;;6299433;22;19919;-60
2023/03/03 02:11:58;;;;;;;5.72;2.40;;;;;;;;;;6298951;22;20102;-61
2023/03/03 02:14:32;;;;;;;6.35;2.33;;;;;;;;;;6299737;22;20103;-61
2023/03/03 02:16:59;;;;;;;3.90;2.40;;;;;;;;;;6298015;22;20021;-61
2023/03/03 02:19:31;;;;;;;5.93;2.30;;;;;;;;;;6298875;22;20107;-61
2023/03/03 02:22:06;;;;;;;8.63;2.47;;;;;;;;;;6300660;22;20059;-61
2023/03/03 02:24:37;;;;;;;8.88;2.50;;;;;;;;;;6299264;22;20023;-61
2023/03/03 02:27:12;;;;;;;3.45;2.03;;;;;;;;;;6298990;22;20029;-60
2023/03/03 02:29:40;;;;;;;3.17;1.67;;;;;;;;;;6299806;22;20043;-61
2023/03/03 02:32:13;;;;;;;4.90;2.40;;;;;;;;;;6299618;22;20543;-60
2023/03/03 02:34:45;;;;;;;5.50;2.10;;;;;;;;;;6300259;22;20073;-61
2023/03/03 02:37:19;;;;;;;4.03;2.00;;;;;;;;;;6301843;22;20090;-60
2023/03/03 02:39:53;;;;;;;9.32;2.30;;;;;;;;;;6300587;22;20029;-61
2023/03/03 02:42:29;;;;;;;6.22;2.40;;;;;;;;;;6301765;22;20062;-60
2023/03/03 02:45:02;;;;;;;4.97;1.95;;;;;;;;;;6300200;22;20528;-61
2023/03/03 02:47:29;;;;;;;4.35;1.90;;;;;;;;;;6299096;22;20055;-60
2023/03/03 02:50:03;;;;;;;4.97;2.33;;;;;;;;;;6300475;22;20102;-60
2023/03/03 02:52:31;;;;;;;7.72;2.97;;;;;;;;;;6300941;22;20539;-61
2023/03/03 02:54:58;;;;;;;5.20;2.58;;;;;;;;;;6301112;22;20029;-61
2023/03/03 02:57:31;;;;;;;8.63;2.40;;;;;;;;;;6300836;22;20026;-60
2023/03/03 02:59:58;;;;;;;7.97;2.55;;;;;;;;;;6301491;22;20046;-61
2023/03/03 03:02:32;;;;;;;7.35;3.45;;;;;;;;;;6300908;22;20065;-61
2023/03/03 03:05:00;;;;;;;4.82;2.72;;;;;;;;;;6299662;22;20054;-61
2023/03/03 03:07:27;;;;;;;12.85;3.97;;;;;;;;;;6300438;22;20030;-61
2023/03/03 03:10:00;;;;;;;7.40;2.80;;;;;;;;;;6301079;22;20594;-61
2023/03/03 03:12:34;;;;;;;7.10;2.75;;;;;;;;;;6299849;22;20027;-60
2023/03/03 03:15:08;;;;;;;6.00;2.80;;;;;;;;;;6301458;22;20054;-60
2023/03/03 03:17:39;;;;;;;5.78;2.60;;;;;;;;;;6300124;22;20086;-61
2023/03/03 03:20:06;;;;;;;6.00;2.50;;;;;;;;;;6300937;22;20106;-60
2023/03/03 03:22:41;;;;;;;9.32;2.78;;;;;;;;;;6298213;22;20019;-61
2023/03/03 03:25:14;;;;;;;8.65;2.83;;;;;;;;;;6302000;22;20090;-60
2023/03/03 03:27:48;;;;;;;9.70;2.78;;;;;;;;;;6300356;22;20023;-60
2023/03/03 03:30:16;;;;;;;4.07;2.20;;;;;;;;;;6301906;22;20023;-61
2023/03/03 03:32:43;;;;;;;4.68;2.78;;;;;;;;;;6300067;22;20026;-61
2023/03/03 03:35:16;;;;;;;7.50;2.40;;;;;;;;;;6300891;22;20029;-61
2023/03/03 03:37:44;;;;;;;8.50;2.75;;;;;;;;;;6301303;22;20024;-61
2023/03/03 03:40:18;;;;;;;7.82;2.40;;;;;;;;;;6301314;22;20015;-61
2023/03/03 03:42:45;;;;;;;8.55;2.70;;;;;;;;;;6299661;22;20033;-60
2023/03/03 03:45:14;;;;;;;6.65;2.80;;;;;;;;;;6301485;22;20026;-61
2023/03/03 03:47:47;;;;;;;5.70;2.95;;;;;;;;;;6300677;22;20401;-61
2023/03/03 03:50:14;;;;;;;8.30;2.85;;;;;;;;;;6299034;22;20468;-60
2023/03/03 03:52:48;;;;;;;5.88;3.30;;;;;;;;;;6297883;22;20055;-60
2023/03/03 03:55:16;;;;;;;13.57;2.88;;;;;;;;;;6300221;22;20050;-61
2023/03/03 03:57:43;;;;;;;7.68;3.30;;;;;;;;;;6299762;22;20491;-61
2023/03/03 04:00:16;;;;;;;7.13;2.90;;;;;;;;;;6301235;22;20101;-61
2023/03/03 04:02:43;;;;;;;13.20;3.47;;;;;;;;;;6300469;22;20026;-61
2023/03/03 04:05:18;;;;;;;7.35;3.63;;;;;;;;;;6275646;22;20023;-61
2023/03/03 04:07:45;;;;;;;13.77;3.10;;;;;;;;;;6300577;22;20030;-60
2023/03/03 04:10:12;;;;;;;;;;;;;;;;;;6301039;22;20023;-61
2023/03/03 04:12:53;;;;;;;6.78;2.70;;;;;;;;;;6299307;22;19941;-61
2023/03/03 04:15:21;;;;;;;4.32;2.63;;;;;;;;;;6300366;22;20090;-61
2023/03/03 04:17:55;;;;;;;11.15;3.10;;;;;;;;;;6300640;22;20015;-61
2023/03/03 04:20:22;;;;;;;7.25;3.00;;;;;;;;;;6300847;22;20061;-61
2023/03/03 04:22:56;;;;;;;8.02;3.20;;;;;;;;;;6300127;22;20764;-60
2023/03/03 04:25:29;;;;;;;7.15;3.28;;;;;;;;;;6299980;22;20042;-61
2023/03/03 04:27:57;;;;;;;9.75;3.65;;;;;;;;;;6300476;22;20023;-60
2023/03/03 04:30:31;;;;;;;9.27;3.05;;;;;;;;;;6300981;22;20025;-61
2023/03/03 04:32:59;;;;;;;10.35;3.47;;;;;;;;;;6300105;22;20094;-61
2023/03/03 04:35:26;;;;;;;9.05;3.85;;;;;;;;;;6300429;22;20065;-60
2023/03/03 04:37:59;;;;;;;11.68;3.80;;;;;;;;;;6299129;22;20023;-61
2023/03/03 04:40:27;;;;;;;12.32;3.92;;;;;;;;;;6300604;22;20029;-60
2023/03/03 04:43:00;;;;;;;6.85;3.58;;;;;;;;;;6297876;22;20023;-61
2023/03/03 04:45:28;;;;;;;7.85;3.45;;;;;;;;;;6300718;22;20015;-61
2023/03/03 04:47:55;;;;;;;14.15;3.75;;;;;;;;;;6299749;22;20102;-61
2023/03/03 04:50:28;;;;;;;6.38;3.33;;;;;;;;;;6299714;22;20142;-60
2023/03/03 04:52:56;;;;;;;10.50;3.92;;;;;;;;;;6300059;22;20019;-61
2023/03/03 04:55:29;;;;;;;8.18;4.40;;;;;;;;;;6299026;22;20094;-61
2023/03/03 04:57:57;;;;;;;9.70;3.78;;;;;;;;;;6299570;22;20051;-61
2023/03/03 05:00:24;;;;;;;9.00;3.50;;;;;;;;;;6299663;22;20021;-61
2023/03/03 05:02:58;;;;;;;10.82;3.58;;;;;;;;;;6298160;22;20103;-61
2023/03/03 05:05:25;;;;;;;8.00;3.55;;;;;;;;;;6299572;22;20019;-60
2023/03/03 05:07:53;;;;;;;7.40;3.88;;;;;;;;;;6300963;22;20094;-62
2023/03/03 05:10:39;;;;;;;9.55;3.78;;;;;;;;;;6300144;22;20094;-61
2023/03/03 05:13:15;;;;;;;9.23;4.18;;;;;;;;;;6268113;22;20024;-60
2023/03/03 05:15:51;;;;;;;11.52;3.63;;;;;;;;;;6268539;22;20354;-60
2023/03/03 05:18:19;;;;;;;12.13;4.15;;;;;;;;;;6269104;22;20453;-61
2023/03/03 05:20:46;;;;;;;9.98;3.92;;;;;;;;;;6268289;22;20098;-60
2023/03/03 05:23:20;;;;;;;14.45;3.83;;;;;;;;;;6268270;22;20122;-61
2023/03/03 05:25:47;;;;;;;;;;;;;;;;;;6267861;22;20079;-60
2023/03/03 05:28:20;;;;;;;9.10;3.88;;;;;;;;;;6265750;22;19998;-61
2023/03/03 05:30:48;;;;;;;8.13;3.63;;;;;;;;;;6267710;22;20030;-61
2023/03/03 05:33:16;;;;;;;7.15;3.88;;;;;;;;;;6268030;22;20062;-61
2023/03/03 05:35:53;;;;;;;10.20;4.30;;;;;;;;;;6265731;22;20618;-60
2023/03/03 05:38:20;;;;;;;9.95;4.10;;;;;;;;;;6267694;22;20085;-61
2023/03/03 05:40:47;;;;;;;8.10;3.95;;;;;;;;;;6268033;22;20099;-61
2023/03/03 05:43:22;;;;;;;9.98;4.60;;;;;;;;;;6266156;22;20691;-61
2023/03/03 05:45:54;;;;;;;9.20;3.78;;;;;;;;;;6239567;22;20041;-60
2023/03/03 05:48:29;;;;;;;7.75;3.50;;;;;;;;;;6267550;22;20052;-60
2023/03/03 05:50:58;;;;;;;7.68;3.58;;;;;;;;;;6266623;22;20426;-60
2023/03/03 05:53:28;;;;;;;6.57;3.20;;;;;;;;;;6266748;22;20034;-61
2023/03/03 05:56:03;;;;;;;4.87;2.30;;;;;;;;;;6267030;22;20030;-60
2023/03/03 05:58:30;;;;;;;;;;;;;;;;;;6269324;22;20047;-60
2023/03/03 06:01:04;;;;;;;8.95;3.67;;;;;;;;;;6267142;22;19919;-60
2023/03/03 06:03:31;;;;;;;8.95;3.78;;;;;;;;;;6268549;22;20098;-60
2023/03/03 06:05:58;;;;;;;14.27;4.35;;;;;;;;;;6268665;22;20226;-61
2023/03/03 06:08:32;;;;;;;8.90;3.53;;;;;;;;;;6269543;22;20024;-60
2023/03/03 06:11:12;;;;;;;10.82;3.95;;;;;;;;;;6277405;22;20122;-60
2023/03/03 06:13:45;;;;;;;15.38;4.95;;;;;;;;;;6300531;22;20027;-59
2023/03/03 06:16:13;;;;;;;17.10;4.15;;;;;;;;;;6300509;22;20062;-60
2023/03/03 06:18:40;;;;;;;13.27;4.07;;;;;;;;;;6301672;22;20021;-61
2023/03/03 06:21:13;;;;;;;8.02;3.38;;;;;;;;;;6302018;22;20058;-60
2023/03/03 06:23:41;;;;;;;10.05;4.18;;;;;;;;;;6301058;22;20019;-60
2023/03/03 06:26:15;;;;;;;12.65;3.88;;;;;;;;;;6300840;22;20095;-60
2023/03/03 06:28:42;;;;;;;10.15;4.22;;;;;;;;;;6301333;22;20023;-60
2023/03/03 06:31:09;;;;;;;13.07;3.65;;;;;;;;;;6297528;22;20095;-60
2023/03/03 06:33:42;;;;;;;9.98;3.47;;;;;;;;;;6301938;22;20479;-60
2023/03/03 06:36:09;;;;;;;10.32;3.30;;;;;;;;;;6301675;22;20045;-60
2023/03/03 06:38:44;;;;;;;7.68;3.63;;;;;;;;;;6301470;22;20019;-60
2023/03/03 06:41:11;;;;;;;7.95;3.45;;;;;;;;;;6301732;22;20062;-59
2023/03/03 06:43:38;;;;;;;9.02;3.30;;;;;;;;;;6302156;22;20094;-59
2023/03/03 06:46:11;;;;;;;6.22;3.22;;;;;;;;;;6298129;22;20102;-60
2023/03/03 06:48:39;;;;;;;8.05;3.78;;;;;;;;;;6301769;22;20055;-60
2023/03/03 06:51:28;;;;;;;6.13;3.50;;;;;;;;;;6274482;22;20058;-60
2023/03/03 06:53:56;;;;;;;5.20;3.03;;;;;;;;;;6297852;22;20031;-61
2023/03/03 06:56:30;;;;;;;9.88;3.50;;;;;;;;;;6301831;22;20065;-60
2023/03/03 06:58:58;;;;;;;6.95;4.25;;;;;;;;;;6301923;22;20015;-61
2023/03/03 07:01:35;;;;;;;11.02;3.47;;;;;;;;;;6302264;22;20023;-61
2023/03/03 07:04:07;;;;;;;6.78;2.90;;;;;;;;;;6300791;22;20058;-61
2023/03/03 07:06:41;;;;;;;6.18;3.45;;;;;;;;;;6301825;22;20343;-61
2023/03/03 07:09:14;;;;;;;7.68;3.30;;;;;;;;;;6273316;22;20453;-60
2023/03/03 07:11:57;;;;;;;8.20;3.22;;;;;;;;;;6301528;22;20029;-61
2023/03/03 07:14:24;;;;;;;5.90;3.13;;;;;;;;;;6300834;22;20023;-61
2023/03/03 07:17:04;;;;;;;6.82;3.42;;;;;;;;;;6301522;22;20062;-62
2023/03/03 07:19:33;;;;;;;7.75;3.20;;;;;;;;;;6301851;22;20102;-60
2023/03/03 07:22:35;;;;;;;7.22;3.33;;;;;;;;;;6299628;22;20090;-61
2023/03/03 07:25:18;;;;;;;8.82;3.35;;;;;;;;;;6286515;22;20138;-61
2023/03/03 07:27:46;;;;;;;5.40;3.05;;;;;;;;;;6301503;22;20029;-61
2023/03/03 07:30:27;;;;;;;7.45;2.80;;;;;;;;;;6300594;22;20019;-61
2023/03/03 07:32:56;;;;;;;8.75;3.60;;;;;;;;;;6301135;22;20539;-61
2023/03/03 07:35:37;;;;;;;8.65;3.15;;;;;;;;;;6301612;22;20023;-61
2023/03/03 07:38:17;;;;;;;5.28;3.22;;;;;;;;;;6301573;22;20042;-61
2023/03/03 07:40:52;;;;;;;5.07;2.75;;;;;;;;;;6301157;22;20052;-61
2023/03/03 07:43:27;;;;;;;6.78;3.20;;;;;;;;;;6300755;22;20555;-61
2023/03/03 07:46:09;;;;;;;9.05;2.70;;;;;;;;;;6300676;22;20025;-61
2023/03/03 07:48:40;;;;;;;5.65;2.83;;;;;;;;;;6301711;22;20027;-61
2023/03/03 07:51:27;;;;;;;6.32;2.70;;;;;;;;;;6300342;22;20094;-61
2023/03/03 07:54:27;;;;;;;9.10;2.58;;;;;;;;;;6300281;22;20102;-62
2023/03/03 07:57:00;;;;;;;4.50;2.50;;;;;;;;;;6301119;22;20330;-62
2023/03/03 07:59:28;;;;;;;4.47;2.53;;;;;;;;;;6301338;22;20023;-62
2023/03/03 08:01:59;;;;;;;8.93;2.50;;;;;;;;;;6300922;22;20487;-63
2023/03/03 08:04:33;;;;;;;;;;;;;;;;;;6300829;22;20037;-62
2023/03/03 08:07:01;;;;;;;6.00;2.80;;;;;;;;;;6300094;22;19998;-62
2023/03/03 08:09:41;;;;;;;6.05;2.40;;;;;;;;;;6299804;22;20432;-62
2023/03/03 08:12:30;;;;;;;6.43;2.70;;;;;;;;;;6299752;22;20030;-62
2023/03/03 08:15:29;;;;;;;11.63;2.72;;;;;;;;;;6298965;22;20030;-62
2023/03/03 08:17:59;;;;;;;6.85;2.90;;;;;;;;;;6300803;22;20012;-62
2023/03/03 08:20:38;;;;;;;4.90;2.63;;;;;;;;;;6299916;22;20094;-62
2023/03/03 08:23:06;;;;;;;8.43;3.13;;;;;;;;;;6301755;22;20031;-62
2023/03/03 08:25:41;;;;;;;8.57;2.70;;;;;;;;;;6299457;22;20540;-64
2023/03/03 08:28:08;;;;;;;8.07;2.65;;;;;;;;;;6301459;22;20443;-62
2023/03/03 08:30:35;;;;;;;;;;;;;;;;;;6300839;22;20101;-63
2023/03/03 08:33:10;;;;;;;3.38;2.25;;;;;;;;;;6300990;22;20626;-62
2023/03/03 08:35:37;;;;;;;5.07;2.40;;;;;;;;;;6299573;22;20121;-63
2023/03/03 08:38:11;;;;;;;5.82;2.67;;;;;;;;;;6301858;22;20081;-63
2023/03/03 08:40:38;;;;;;;;;;;;;;;;;;6300052;22;20027;-63
2023/03/03 08:43:05;;;;;;;4.00;2.05;;;;;;;;;;6299989;22;20010;-62
2023/03/03 08:45:40;;;;;;;4.95;2.60;;;;;;;;;;6300420;22;20030;-63
2023/03/03 08:48:07;;;;;;;5.40;2.47;;;;;;;;;;6300478;22;20051;-62
2023/03/03 08:50:34;;;;;;;5.93;2.65;;;;;;;;;;6300926;22;20027;-65
2023/03/03 08:53:08;;;;;;;4.50;2.00;;;;;;;;;;6301523;22;20058;-62
2023/03/03 08:55:35;;;;;;;6.60;2.53;;;;;;;;;;6299888;22;20090;-64
2023/03/03 08:58:09;;;;;;;5.95;2.30;;;;;;;;;;6300753;22;20069;-62
2023/03/03 09:00:37;;;;;;;4.97;2.35;;;;;;;;;;6299972;22;20023;-63
2023/03/03 09:03:06;;;;;;;4.50;2.05;;;;;;;;;;6300095;22;20023;-63
2023/03/03 09:05:40;;;;;;;5.07;2.42;;;;;;;;;;6299864;22;20522;-63
2023/03/03 09:08:07;;;;;;;;;;;;;;;;;;6302008;22;20019;-63
2023/03/03 09:10:40;;;;;;;3.60;1.85;;;;;;;;;;6300471;22;19950;-63
2023/03/03 09:13:21;;;;;;;6.20;2.20;;;;;;;;;;6299924;22;20030;-63
2023/03/03 09:15:49;;;;;;;4.68;2.53;;;;;;;;;;6299120;22;20465;-63
2023/03/03 09:18:31;;;;;;;3.45;1.98;;;;;;;;;;6299759;22;20030;-64
2023/03/03 09:20:58;;;;;;;3.75;1.80;;;;;;;;;;6299388;22;20495;-63
2023/03/03 09:23:36;;;;;;;6.35;2.03;;;;;;;;;;6301534;22;20033;-63
2023/03/03 09:26:25;;;;;;;4.82;2.28;;;;;;;;;;6300294;22;20023;-63
2023/03/03 09:28:59;;;;;;;4.43;2.35;;;;;;;;;;6297490;22;20130;-63
2023/03/03 09:31:45;;;;;;;6.70;2.00;;;;;;;;;;6300236;22;20102;-63
2023/03/03 09:34:19;;;;;;;9.90;2.10;;;;;;;;;;6301088;22;20466;-63
2023/03/03 09:36:54;;;;;;;5.93;1.90;;;;;;;;;;6300345;22;20058;-64
2023/03/03 09:39:21;;;;;;;;;;;;;;;;;;6301498;22;20023;-63
2023/03/03 09:42:04;;;;;;;5.53;1.90;;;;;;;;;;6299640;22;19918;-63
2023/03/03 09:44:38;;;;;;;5.13;1.70;;;;;;;;;;6300012;22;20027;-64
2023/03/03 09:47:23;;;;;;;3.65;2.15;;;;;;;;;;6300065;22;20030;-64
2023/03/03 09:50:17;;;;;;;5.80;2.03;;;;;;;;;;6299866;22;20020;-64
2023/03/03 09:53:09;;;;;;;5.80;2.45;;;;;;;;;;6300007;22;20456;-64
2023/03/03 09:55:39;;;;;;;4.28;2.03;;;;;;;;;;6300137;22;20023;-64
2023/03/03 09:58:31;;;;;;;6.65;2.33;;;;;;;;;;6300496;22;20019;-64
2023/03/03 10:00:58;;;;;;;3.92;2.00;;;;;;;;;;6299607;22;20046;-64
2023/03/03 10:03:45;;;;;;;4.32;2.10;;;;;;;;;;6299898;22;20097;-64
2023/03/03 10:06:21;;;;;;;6.00;2.40;;;;;;;;;;6298220;22;20098;-65
2023/03/03 10:08:55;;;;;;;3.72;1.80;;;;;;;;;;6299453;22;20054;-64
2023/03/03 10:11:28;;;;;;;5.18;2.08;;;;;;;;;;6300266;22;20042;-64
2023/03/03 10:14:05;;;;;;;8.93;2.45;;;;;;;;;;6299847;22;20098;-64
2023/03/03 10:16:39;;;;;;;5.38;2.17;;;;;;;;;;6300472;22;20098;-64
2023/03/03 10:19:33;;;;;;;9.00;2.05;;;;;;;;;;6300459;22;20031;-64
2023/03/03 10:22:00;;;;;;;2.95;1.50;;;;;;;;;;6299173;22;20079;-64
2023/03/03 10:24:54;;;;;;;4.63;1.90;;;;;;;;;;6300473;22;20055;-64
2023/03/03 10:27:47;;;;;;;4.68;2.13;;;;;;;;;;6299248;22;20100;-64
2023/03/03 10:30:21;;;;;;;;;;;;;;;;;;6298821;22;20054;-64
2023/03/03 10:33:12;;;;;;;5.20;1.50;;;;;;;;;;6298719;22;19918;-64
2023/03/03 10:35:46;;;;;;;4.60;1.80;;;;;;;;;;6299763;22;20028;-63
2023/03/03 10:39:04;;;;;;;8.85;2.15;;;;;;;;;;6299893;22;20125;-64
2023/03/03 10:41:47;;;;;;;6.72;2.45;;;;;;;;;;6253464;22;20094;-64
2023/03/03 10:44:20;;;;;;;3.50;1.95;;;;;;;;;;6299360;22;20023;-64
2023/03/03 10:46:54;;;;;;;3.30;1.48;;;;;;;;;;6299393;22;20058;-64
2023/03/03 10:49:33;;;;;;;5.60;1.85;;;;;;;;;;6299747;22;20058;-64
2023/03/03 10:52:07;;;;;;;6.28;1.67;;;;;;;;;;6299516;22;20027;-64
2023/03/03 10:54:34;;;;;;;;;;;;;;;;;;6302147;22;20725;-64
2023/03/03 10:57:01;;;;;;;6.45;1.83;;;;;;;;;;6300494;22;19997;-64
2023/03/03 10:59:44;;;;;;;5.50;1.60;;;;;;;;;;6302820;22;20027;-64
2023/03/03 11:02:29;;;;;;;4.68;1.77;;;;;;;;;;6300957;22;20102;-64
2023/03/03 11:05:05;;;;;;;5.55;1.58;;;;;;;;;;6301176;22;20521;-65
2023/03/03 11:07:48;;;;;;;3.83;2.08;;;;;;;;;;6301080;22;20073;-65
2023/03/03 11:10:31;;;;;;;3.63;1.40;;;;;;;;;;6297416;22;20490;-65
2023/03/03 11:13:12;;;;;;;3.35;1.80;;;;;;;;;;6298372;22;20070;-64
2023/03/03 11:16:18;;;;;;;3.88;1.60;;;;;;;;;;6299104;22;20026;-64
2023/03/03 11:19:00;;;;;;;7.45;1.67;;;;;;;;;;6249500;22;20016;-64
2023/03/03 11:21:40;;;;;;;3.67;1.50;;;;;;;;;;6299849;22;20016;-64
2023/03/03 11:24:15;;;;;;;5.38;1.63;;;;;;;;;;6300357;22;20026;-63
2023/03/03 11:26:57;;;;;;;7.53;1.75;;;;;;;;;;6300203;22;20015;-64
2023/03/03 11:29:27;;;;;;;6.47;1.60;;;;;;;;;;6300408;22;20118;-64
2023/03/03 11:32:05;;;;;;;7.65;2.08;;;;;;;;;;6298815;22;20020;-64
2023/03/03 11:34:43;;;;;;;6.07;1.60;;;;;;;;;;6298276;22;20019;-64
2023/03/03 11:37:23;;;;;;;5.45;1.40;;;;;;;;;;6298842;22;20027;-64
2023/03/03 11:39:52;;;;;;;5.30;1.42;;;;;;;;;;6301511;22;20094;-64
2023/03/03 11:42:41;;;;;;;5.63;1.48;;;;;;;;;;6300123;22;20077;-63
2023/03/03 11:45:12;;;;;;;5.72;1.58;;;;;;;;;;6301558;22;20093;-64
2023/03/03 11:48:02;;;;;;;3.80;1.50;;;;;;;;;;6301659;22;20073;-64
2023/03/03 11:50:38;;;;;;;2.60;1.33;;;;;;;;;;6299891;22;20019;-64
2023/03/03 11:53:24;;;;;;;5.10;1.67;;;;;;;;;;6301314;22;20021;-64
2023/03/03 11:55:57;;;;;;;3.20;1.23;;;;;;;;;;6300099;22;20090;-64
2023/03/03 11:58:44;;;;;;;7.63;1.63;;;;;;;;;;6301512;22;20055;-64
2023/03/03 12:01:14;;;;;;;4.70;1.20;;;;;;;;;;6300790;22;20031;-64
2023/03/03 12:03:58;;;;;;;7.90;1.58;;;;;;;;;;6299157;22;20376;-64
2023/03/03 12:06:30;;;;;;;3.27;1.30;;;;;;;;;;6299750;22;20062;-64
2023/03/03 12:09:04;;;;;;;3.50;1.70;;;;;;;;;;6300857;22;20025;-64
2023/03/03 12:12:03;;;;;;;1.20;1.00;;;;;;;;;;6299282;22;20038;-64
2023/03/03 12:14:43;;;;;;;2.22;1.42;;;;;;;;;;6302177;22;20026;-64
2023/03/03 12:17:20;;;;;;;2.33;1.27;;;;;;;;;;6300547;22;20026;-65
2023/03/03 12:19:47;;;;;;;3.05;1.42;;;;;;;;;;6301518;22;20019;-64
2023/03/03 12:22:35;;;;;;;3.25;1.55;;;;;;;;;;6299504;22;20027;-64
2023/03/03 12:25:17;;;;;;;4.93;1.25;;;;;;;;;;6298839;22;20548;-64
2023/03/03 12:27:57;;;;;;;4.32;1.60;;;;;;;;;;6301260;22;20042;-64
2023/03/03 12:30:42;;;;;;;5.00;1.60;;;;;;;;;;6300052;22;20372;-64
2023/03/03 12:33:27;;;;;;;2.30;1.42;;;;;;;;;;6300844;22;20480;-65
2023/03/03 12:35:54;;;;;;;6.43;1.48;;;;;;;;;;6300743;22;20023;-64
2023/03/03 12:38:42;;;;;;;5.45;1.45;;;;;;;;;;6299944;22;20508;-64
2023/03/03 12:41:26;;;;;;;8.10;1.50;;;;;;;;;;6298876;22;20102;-64
2023/03/03 12:44:18;;;;;;;4.10;1.42;;;;;;;;;;6300946;22;20023;-64
2023/03/03 12:46:51;;;;;;;2.92;1.20;;;;;;;;;;6300322;22;20058;-64
2023/03/03 12:49:28;;;;;;;2.90;1.23;;;;;;;;;;6300915;22;20023;-64
2023/03/03 12:52:03;;;;;;;;;;;;;;;;;;6300371;22;20047;-64
2023/03/03 12:54:39;;;;;;;3.10;1.63;;;;;;;;;;6300842;22;20001;-64
2023/03/03 12:57:17;;;;;;;4.10;1.50;;;;;;;;;;6301248;22;20055;-63
2023/03/03 13:00:10;;;;;;;2.17;1.23;;;;;;;;;;6300871;22;20098;-64
2023/03/03 13:02:37;;;;;;;4.35;1.55;;;;;;;;;;6299215;22;20100;-64
2023/03/03 13:05:10;;;;;;;5.03;1.55;;;;;;;;;;6300280;22;20073;-64
2023/03/03 13:07:44;;;;;;;2.85;1.38;;;;;;;;;;6300894;22;20015;-64
2023/03/03 13:10:21;;;;;;;4.60;1.38;;;;;;;;;;6300331;22;20618;-64
2023/03/03 13:13:08;;;;;;;4.75;1.52;;;;;;;;;;6299208;22;20106;-64
2023/03/03 13:16:09;;;;;;;2.72;1.10;;;;;;;;;;6294790;22;20027;-64
2023/03/03 13:18:44;;;;;;;2.60;1.15;;;;;;;;;;6265755;22;20023;-64
2023/03/03 13:21:36;;;;;;;1.67;1.00;;;;;;;;;;6300296;22;20043;-64
2023/03/03 13:24:14;;;;;;;3.78;1.15;;;;;;;;;;6300204;22;20025;-64
2023/03/03 13:26:55;;;;;;;4.40;1.48;;;;;;;;;;6299886;22;20023;-63
2023/03/03 13:29:28;;;;;;;5.47;1.10;;;;;;;;;;6299787;22;20015;-65
2023/03/03 13:32:11;;;;;;;3.88;1.45;;;;;;;;;;6298507;22;20465;-64
2023/03/03 13:34:47;;;;;;;4.43;1.50;;;;;;;;;;6300428;22;20015;-64
2023/03/03 13:37:23;;;;;;;4.95;1.50;;;;;;;;;;6299678;22;20050;-64
2023/03/03 13:40:02;;;;;;;1.90;1.27;;;;;;;;;;6299705;22;20109;-63
2023/03/03 13:42:41;;;;;;;4.20;1.77;;;;;;;;;;6299813;22;20024;-64
2023/03/03 13:45:31;;;;;;;4.70;2.03;;;;;;;;;;6300487;22;20053;-63
2023/03/03 13:48:24;;;;;;;5.25;1.52;;;;;;;;;;6260687;22;20023;-64
2023/03/03 13:51:32;;;;;;;9.02;2.33;;;;;;;;;;6300238;22;20346;-64
2023/03/03 13:54:12;;;;;;;4.90;1.80;;;;;;;;;;6299032;22;20710;-64
2023/03/03 13:57:05;;;;;;;4.70;1.90;;;;;;;;;;6299429;22;20413;-63
2023/03/03 13:59:39;;;;;;;3.17;1.80;;;;;;;;;;6300106;22;20023;-63
2023/03/03 14:02:16;;;;;;;5.82;1.77;;;;;;;;;;6299033;22;20059;-63
2023/03/03 14:04:54;;;;;;;4.95;1.83;;;;;;;;;;6299525;22;20050;-63
2023/03/03 14:07:40;;;;;;;3.83;1.73;;;;;;;;;;6299072;22;20098;-63
2023/03/03 14:10:15;;;;;;;4.05;1.33;;;;;;;;;;6299597;22;20110;-64
2023/03/03 14:13:05;;;;;;;2.17;1.40;;;;;;;;;;6299031;22;20051;-63
2023/03/03 14:16:04;;;;;;;2.08;1.23;;;;;;;;;;6299400;22;20112;-64
2023/03/03 14:18:37;;;;;;;3.75;1.05;;;;;;;;;;6299843;22;20030;-64
2023/03/03 14:21:14;;;;;;;6.18;1.67;;;;;;;;;;6299940;22;20023;-64
2023/03/03 14:23:58;;;;;;;5.55;1.45;;;;;;;;;;6294280;22;20061;-63
2023/03/03 14:26:25;;;;;;;;;;;;;;;;;;6298303;22;20027;-64
2023/03/03 14:29:14;;;;;;;2.83;1.40;;;;;;;;;;6298403;22;19989;-63
2023/03/03 14:31:42;;;;;;;6.85;1.48;;;;;;;;;;6298493;22;20105;-64
2023/03/03 14:34:37;;;;;;;4.13;1.55;;;;;;;;;;6296553;22;20461;-63
2023/03/03 14:37:04;;;;;;;;;;;;;;;;;;6297303;22;20023;-63
2023/03/03 14:39:40;;;;;;;5.50;1.40;;;;;;;;;;6298085;22;20006;-63
2023/03/03 14:42:28;;;;;;;10.82;1.75;;;;;;;;;;6298320;22;20027;-63
2023/03/03 14:45:15;;;;;;;10.35;1.33;;;;;;;;;;6298563;22;20023;-64
2023/03/03 14:47:55;;;;;;;5.30;1.52;;;;;;;;;;6298863;22;20026;-63
2023/03/03 14:50:31;;;;;;;4.72;1.67;;;;;;;;;;6298982;22;20500;-63
2023/03/03 14:53:05;;;;;;;7.25;1.65;;;;;;;;;;6298425;22;20106;-63
2023/03/03 14:55:40;;;;;;;4.53;1.30;;;;;;;;;;6299136;22;20096;-63
2023/03/03 14:58:26;;;;;;;2.28;1.27;;;;;;;;;;6298122;22;20027;-63
2023/03/03 15:01:19;;;;;;;4.65;1.40;;;;;;;;;;6297398;22;20029;-63
2023/03/03 15:03:48;;;;;;;9.32;1.52;;;;;;;;;;6299168;22;20034;-63
2023/03/03 15:06:29;;;;;;;6.72;2.03;;;;;;;;;;6298623;22;20098;-64
2023/03/03 15:08:56;;;;;;;5.93;1.77;;;;;;;;;;6298010;22;20023;-63
2023/03/03 15:11:39;;;;;;;3.83;1.30;;;;;;;;;;6297912;22;20094;-63
2023/03/03 15:14:14;;;;;;;6.03;1.45;;;;;;;;;;6299188;22;20029;-63
2023/03/03 15:16:48;;;;;;;3.50;1.13;;;;;;;;;;6297230;22;20027;-64
2023/03/03 15:19:23;;;;;;;2.13;1.00;;;;;;;;;;6298706;22;20015;-65
2023/03/03 15:22:09;;;;;;;8.60;1.40;;;;;;;;;;6297446;22;20033;-63
2023/03/03 15:24:50;;;;;;;7.40;2.00;;;;;;;;;;6296723;22;20109;-63
2023/03/03 15:27:31;;;;;;;5.20;1.58;;;;;;;;;;6298855;22;20099;-63
2023/03/03 15:30:02;;;;;;;3.85;1.38;;;;;;;;;;6296883;22;20106;-64
2023/03/03 15:32:44;;;;;;;4.35;1.23;;;;;;;;;;6298327;22;20033;-63
2023/03/03 15:35:36;;;;;;;5.88;1.85;;;;;;;;;;6298437;22;20481;-63
2023/03/03 15:38:18;;;;;;;8.82;1.90;;;;;;;;;;6297020;22;20484;-63